sensor_id;sensor_type;location;lat;lon;timestamp;temperature;humidity
4757;DHT22;2392;52.578;13.426;2023-11-18T00:00:58;6.20;99.90
4757;DHT22;2392;52.578;13.426;2023-11-18T00:03:25;6.10;99.90
4757;DHT22;2392;52.578;13.426;2023-11-18T00:05:51;6.10;99.90
4757;DHT22;2392;52.578;13.426;2023-11-18T00:08:18;6.10;99.90
4757;DHT22;2392;52.578;13.426;2023-11-18T00:10:46;6.10;99.90
4757;DHT22;2392;52.578;13.426;2023-11-18T00:13:13;6.10;99.90
4757;DHT22;2392;52.578;13.426;2023-11-18T00:15:41;6.10;99.90
4757;DHT22;2392;52.578;13.426;2023-11-18T00:18:08;6.00;99.90
4757;DHT22;2392;52.578;13.426;2023-11-18T00:20:35;6.00;99.90
4757;DHT22;2392;52.578;13.426;2023-11-18T00:23:01;6.00;99.90
4757;DHT22;2392;52.578;13.426;2023-11-18T00:25:30;6.00;99.90
4757;DHT22;2392;52.578;13.426;2023-11-18T00:27:58;6.00;99.90
4757;DHT22;2392;52.578;13.426;2023-11-18T00:30:25;6.00;99.90
4757;DHT22;2392;52.578;13.426;2023-11-18T00:32:53;6.00;99.90
4757;DHT22;2392;52.578;13.426;2023-11-18T00:35:20;6.00;99.90
4757;DHT22;2392;52.578;13.426;2023-11-18T00:37:46;5.90;99.90
4757;DHT22;2392;52.578;13.426;2023-11-18T00:40:13;5.90;99.90
4757;DHT22;2392;52.578;13.426;2023-11-18T00:42:43;5.90;99.90
4757;DHT22;2392;52.578;13.426;2023-11-18T00:45:12;5.90;99.90
4757;DHT22;2392;52.578;13.426;2023-11-18T00:47:38;5.90;99.90
4757;DHT22;2392;52.578;13.426;2023-11-18T00:50:07;5.90;99.90
4757;DHT22;2392;52.578;13.426;2023-11-18T00:52:34;5.90;99.90
4757;DHT22;2392;52.578;13.426;2023-11-18T00:55:04;5.90;99.90
4757;DHT22;2392;52.578;13.426;2023-11-18T00:57:32;5.90;99.90
4757;DHT22;2392;52.578;13.426;2023-11-18T00:59:59;5.90;99.90
4757;DHT22;2392;52.578;13.426;2023-11-18T01:02:27;5.80;99.90
4757;DHT22;2392;52.578;13.426;2023-11-18T01:04:53;5.90;99.90
4757;DHT22;2392;52.578;13.426;2023-11-18T01:07:20;5.90;99.90
4757;DHT22;2392;52.578;13.426;2023-11-18T01:09:47;5.80;99.90
4757;DHT22;2392;52.578;13.426;2023-11-18T01:12:14;5.80;99.90
4757;DHT22;2392;52.578;13.426;2023-11-18T01:14:41;5.80;99.90
4757;DHT22;2392;52.578;13.426;2023-11-18T01:17:07;5.90;99.90
4757;DHT22;2392;52.578;13.426;2023-11-18T01:19:38;5.80;99.90
4757;DHT22;2392;52.578;13.426;2023-11-18T01:22:05;5.80;99.90
4757;DHT22;2392;52.578;13.426;2023-11-18T01:24:31;5.80;99.90
4757;DHT22;2392;52.578;13.426;2023-11-18T01:26:58;5.80;99.90
4757;DHT22;2392;52.578;13.426;2023-11-18T01:29:25;5.80;99.90
4757;DHT22;2392;52.578;13.426;2023-11-18T01:31:52;5.80;99.90
4757;DHT22;2392;52.578;13.426;2023-11-18T01:34:21;5.80;99.90
4757;DHT22;2392;52.578;13.426;2023-11-18T01:36:49;5.80;99.90
4757;DHT22;2392;52.578;13.426;2023-11-18T01:39:16;5.80;99.90
4757;DHT22;2392;52.578;13.426;2023-11-18T01:41:44;5.80;99.90
4757;DHT22;2392;52.578;13.426;2023-11-18T01:44:10;5.80;99.90
4757;DHT22;2392;52.578;13.426;2023-11-18T01:46:40;5.80;99.90
4757;DHT22;2392;52.578;13.426;2023-11-18T01:49:10;5.80;99.90
4757;DHT22;2392;52.578;13.426;2023-11-18T01:51:39;5.80;99.90
4757;DHT22;2392;52.578;13.426;2023-11-18T01:54:08;5.80;99.90
4757;DHT22;2392;52.578;13.426;2023-11-18T01:56:37;5.80;99.90
4757;DHT22;2392;52.578;13.426;2023-11-18T01:59:04;5.80;99.90
4757;DHT22;2392;52.578;13.426;2023-11-18T02:01:34;5.80;99.90
4757;DHT22;2392;52.578;13.426;2023-11-18T02:04:02;5.80;99.90
4757;DHT22;2392;52.578;13.426;2023-11-18T02:06:31;5.80;99.90
4757;DHT22;2392;52.578;13.426;2023-11-18T02:08:58;5.80;99.90
4757;DHT22;2392;52.578;13.426;2023-11-18T02:11:29;5.80;99.90
4757;DHT22;2392;52.578;13.426;2023-11-18T02:14:00;5.80;99.90
4757;DHT22;2392;52.578;13.426;2023-11-18T02:16:29;5.80;99.90
4757;DHT22;2392;52.578;13.426;2023-11-18T02:18:56;5.80;99.90
4757;DHT22;2392;52.578;13.426;2023-11-18T02:21:23;5.80;99.90
4757;DHT22;2392;52.578;13.426;2023-11-18T02:23:53;5.80;99.90
4757;DHT22;2392;52.578;13.426;2023-11-18T02:26:24;5.80;99.90
4757;DHT22;2392;52.578;13.426;2023-11-18T02:28:51;5.80;99.90
4757;DHT22;2392;52.578;13.426;2023-11-18T02:31:22;5.80;99.90
4757;DHT22;2392;52.578;13.426;2023-11-18T02:33:57;5.80;99.90
4757;DHT22;2392;52.578;13.426;2023-11-18T02:36:31;5.80;99.90
4757;DHT22;2392;52.578;13.426;2023-11-18T02:39:04;5.80;99.90
4757;DHT22;2392;52.578;13.426;2023-11-18T02:41:34;5.80;99.90
4757;DHT22;2392;52.578;13.426;2023-11-18T02:44:02;5.90;99.90
4757;DHT22;2392;52.578;13.426;2023-11-18T02:46:34;5.90;99.90
4757;DHT22;2392;52.578;13.426;2023-11-18T02:49:01;5.90;99.90
4757;DHT22;2392;52.578;13.426;2023-11-18T02:51:28;5.90;99.90
4757;DHT22;2392;52.578;13.426;2023-11-18T02:53:56;5.90;99.90
4757;DHT22;2392;52.578;13.426;2023-11-18T02:56:24;5.90;99.90
4757;DHT22;2392;52.578;13.426;2023-11-18T02:58:53;5.90;99.90
4757;DHT22;2392;52.578;13.426;2023-11-18T03:01:19;5.90;99.90
4757;DHT22;2392;52.578;13.426;2023-11-18T03:03:46;5.90;99.90
4757;DHT22;2392;52.578;13.426;2023-11-18T03:06:13;5.90;99.90
4757;DHT22;2392;52.578;13.426;2023-11-18T03:08:41;5.90;99.90
4757;DHT22;2392;52.578;13.426;2023-11-18T03:11:08;5.90;99.90
4757;DHT22;2392;52.578;13.426;2023-11-18T03:13:35;5.90;99.90
4757;DHT22;2392;52.578;13.426;2023-11-18T03:16:06;5.90;99.90
4757;DHT22;2392;52.578;13.426;2023-11-18T03:18:37;5.90;99.90
4757;DHT22;2392;52.578;13.426;2023-11-18T03:21:06;5.90;99.90
4757;DHT22;2392;52.578;13.426;2023-11-18T03:23:33;5.90;99.90
4757;DHT22;2392;52.578;13.426;2023-11-18T03:25:59;5.90;99.90
4757;DHT22;2392;52.578;13.426;2023-11-18T03:28:26;5.90;99.90
4757;DHT22;2392;52.578;13.426;2023-11-18T03:30:53;5.90;99.90
4757;DHT22;2392;52.578;13.426;2023-11-18T03:33:22;5.90;99.90
4757;DHT22;2392;52.578;13.426;2023-11-18T03:35:49;5.90;99.90
4757;DHT22;2392;52.578;13.426;2023-11-18T03:38:15;5.90;99.90
4757;DHT22;2392;52.578;13.426;2023-11-18T03:40:42;5.90;99.90
4757;DHT22;2392;52.578;13.426;2023-11-18T03:43:10;5.90;99.90
4757;DHT22;2392;52.578;13.426;2023-11-18T03:45:38;5.90;99.90
4757;DHT22;2392;52.578;13.426;2023-11-18T03:48:05;5.80;99.90
4757;DHT22;2392;52.578;13.426;2023-11-18T03:50:33;5.80;99.90
4757;DHT22;2392;52.578;13.426;2023-11-18T03:53:00;5.80;99.90
4757;DHT22;2392;52.578;13.426;2023-11-18T03:55:28;5.80;99.90
4757;DHT22;2392;52.578;13.426;2023-11-18T03:57:56;5.80;99.90
4757;DHT22;2392;52.578;13.426;2023-11-18T04:00:24;5.80;99.90
4757;DHT22;2392;52.578;13.426;2023-11-18T04:02:55;5.80;99.90
4757;DHT22;2392;52.578;13.426;2023-11-18T04:05:22;5.80;99.90
4757;DHT22;2392;52.578;13.426;2023-11-18T04:07:50;5.80;99.90
4757;DHT22;2392;52.578;13.426;2023-11-18T04:10:17;5.80;99.90
4757;DHT22;2392;52.578;13.426;2023-11-18T04:12:45;5.80;99.90
4757;DHT22;2392;52.578;13.426;2023-11-18T04:15:14;5.70;99.90
4757;DHT22;2392;52.578;13.426;2023-11-18T04:17:40;5.70;99.90
4757;DHT22;2392;52.578;13.426;2023-11-18T04:20:10;5.70;99.90
4757;DHT22;2392;52.578;13.426;2023-11-18T04:22:39;5.70;99.90
4757;DHT22;2392;52.578;13.426;2023-11-18T04:25:07;5.70;99.90
4757;DHT22;2392;52.578;13.426;2023-11-18T04:27:36;5.70;99.90
4757;DHT22;2392;52.578;13.426;2023-11-18T04:30:04;5.60;99.90
4757;DHT22;2392;52.578;13.426;2023-11-18T04:32:31;5.60;99.90
4757;DHT22;2392;52.578;13.426;2023-11-18T04:34:58;5.60;99.90
4757;DHT22;2392;52.578;13.426;2023-11-18T04:37:25;5.60;99.90
4757;DHT22;2392;52.578;13.426;2023-11-18T04:39:52;5.60;99.90
4757;DHT22;2392;52.578;13.426;2023-11-18T04:42:22;5.60;99.90
4757;DHT22;2392;52.578;13.426;2023-11-18T04:44:48;5.60;99.90
4757;DHT22;2392;52.578;13.426;2023-11-18T04:47:15;5.60;99.90
4757;DHT22;2392;52.578;13.426;2023-11-18T04:49:45;5.60;99.90
4757;DHT22;2392;52.578;13.426;2023-11-18T04:52:12;5.60;99.90
4757;DHT22;2392;52.578;13.426;2023-11-18T04:54:39;5.70;99.90
4757;DHT22;2392;52.578;13.426;2023-11-18T04:57:05;5.70;99.90
4757;DHT22;2392;52.578;13.426;2023-11-18T04:59:35;5.70;99.90
4757;DHT22;2392;52.578;13.426;2023-11-18T05:02:02;5.70;99.90
4757;DHT22;2392;52.578;13.426;2023-11-18T05:04:29;5.80;99.90
4757;DHT22;2392;52.578;13.426;2023-11-18T05:06:56;5.80;99.90
4757;DHT22;2392;52.578;13.426;2023-11-18T05:09:22;5.80;99.90
4757;DHT22;2392;52.578;13.426;2023-11-18T05:11:49;5.80;99.90
4757;DHT22;2392;52.578;13.426;2023-11-18T05:14:16;5.90;99.90
4757;DHT22;2392;52.578;13.426;2023-11-18T05:16:44;5.80;99.90
4757;DHT22;2392;52.578;13.426;2023-11-18T05:19:10;5.80;99.90
4757;DHT22;2392;52.578;13.426;2023-11-18T05:21:37;5.80;99.90
4757;DHT22;2392;52.578;13.426;2023-11-18T05:24:04;5.80;99.90
4757;DHT22;2392;52.578;13.426;2023-11-18T05:26:31;5.80;99.90
4757;DHT22;2392;52.578;13.426;2023-11-18T05:29:00;5.90;99.90
4757;DHT22;2392;52.578;13.426;2023-11-18T05:31:27;5.90;99.90
4757;DHT22;2392;52.578;13.426;2023-11-18T05:33:55;5.90;99.90
4757;DHT22;2392;52.578;13.426;2023-11-18T05:36:22;5.90;99.90
4757;DHT22;2392;52.578;13.426;2023-11-18T05:38:53;5.90;99.90
4757;DHT22;2392;52.578;13.426;2023-11-18T05:41:20;5.90;99.90
4757;DHT22;2392;52.578;13.426;2023-11-18T05:43:53;5.90;99.90
4757;DHT22;2392;52.578;13.426;2023-11-18T05:46:23;5.80;99.90
4757;DHT22;2392;52.578;13.426;2023-11-18T05:48:51;5.80;99.90
4757;DHT22;2392;52.578;13.426;2023-11-18T05:51:21;5.80;99.90
4757;DHT22;2392;52.578;13.426;2023-11-18T05:53:48;5.80;99.90
4757;DHT22;2392;52.578;13.426;2023-11-18T05:56:16;5.70;99.90
4757;DHT22;2392;52.578;13.426;2023-11-18T05:58:43;5.70;99.90
4757;DHT22;2392;52.578;13.426;2023-11-18T06:01:10;5.70;99.90
4757;DHT22;2392;52.578;13.426;2023-11-18T06:03:37;5.70;99.90
4757;DHT22;2392;52.578;13.426;2023-11-18T06:06:06;5.60;99.90
4757;DHT22;2392;52.578;13.426;2023-11-18T06:08:35;5.60;99.90
4757;DHT22;2392;52.578;13.426;2023-11-18T06:11:01;5.70;99.90
4757;DHT22;2392;52.578;13.426;2023-11-18T06:13:38;5.60;99.90
4757;DHT22;2392;52.578;13.426;2023-11-18T06:16:12;5.50;99.90
4757;DHT22;2392;52.578;13.426;2023-11-18T06:18:41;5.50;99.90
4757;DHT22;2392;52.578;13.426;2023-11-18T06:21:11;5.50;99.90
4757;DHT22;2392;52.578;13.426;2023-11-18T06:23:39;5.40;99.90
4757;DHT22;2392;52.578;13.426;2023-11-18T06:26:06;5.40;99.90
4757;DHT22;2392;52.578;13.426;2023-11-18T06:28:34;5.40;99.90
4757;DHT22;2392;52.578;13.426;2023-11-18T06:31:01;5.40;99.90
4757;DHT22;2392;52.578;13.426;2023-11-18T06:33:27;5.30;99.90
4757;DHT22;2392;52.578;13.426;2023-11-18T06:35:54;5.20;99.90
4757;DHT22;2392;52.578;13.426;2023-11-18T06:38:22;5.20;99.90
4757;DHT22;2392;52.578;13.426;2023-11-18T06:40:53;5.10;99.90
4757;DHT22;2392;52.578;13.426;2023-11-18T06:43:21;5.10;99.90
4757;DHT22;2392;52.578;13.426;2023-11-18T06:45:48;5.10;99.90
4757;DHT22;2392;52.578;13.426;2023-11-18T06:48:15;5.10;99.90
4757;DHT22;2392;52.578;13.426;2023-11-18T06:50:46;5.00;99.90
4757;DHT22;2392;52.578;13.426;2023-11-18T06:53:12;5.10;99.90
4757;DHT22;2392;52.578;13.426;2023-11-18T06:55:41;5.10;99.90
4757;DHT22;2392;52.578;13.426;2023-11-18T06:58:09;5.10;99.90
4757;DHT22;2392;52.578;13.426;2023-11-18T07:00:36;5.10;99.90
4757;DHT22;2392;52.578;13.426;2023-11-18T07:03:04;5.20;99.90
4757;DHT22;2392;52.578;13.426;2023-11-18T07:05:31;5.20;99.90
4757;DHT22;2392;52.578;13.426;2023-11-18T07:07:58;5.20;99.90
4757;DHT22;2392;52.578;13.426;2023-11-18T07:10:25;5.20;99.90
4757;DHT22;2392;52.578;13.426;2023-11-18T07:12:53;5.20;99.90
4757;DHT22;2392;52.578;13.426;2023-11-18T07:15:22;5.30;99.90
4757;DHT22;2392;52.578;13.426;2023-11-18T07:17:48;5.30;99.90
4757;DHT22;2392;52.578;13.426;2023-11-18T07:20:16;5.30;99.90
4757;DHT22;2392;52.578;13.426;2023-11-18T07:22:43;5.40;99.90
4757;DHT22;2392;52.578;13.426;2023-11-18T07:25:10;5.40;99.90
4757;DHT22;2392;52.578;13.426;2023-11-18T07:27:37;5.40;99.90
4757;DHT22;2392;52.578;13.426;2023-11-18T07:30:05;5.30;99.90
4757;DHT22;2392;52.578;13.426;2023-11-18T07:32:34;5.30;99.90
4757;DHT22;2392;52.578;13.426;2023-11-18T07:35:00;5.30;99.90
4757;DHT22;2392;52.578;13.426;2023-11-18T07:37:27;5.30;99.90
4757;DHT22;2392;52.578;13.426;2023-11-18T07:39:58;5.40;99.90
4757;DHT22;2392;52.578;13.426;2023-11-18T07:42:26;5.40;99.90
4757;DHT22;2392;52.578;13.426;2023-11-18T07:44:53;5.40;99.90
4757;DHT22;2392;52.578;13.426;2023-11-18T07:47:20;5.40;99.90
4757;DHT22;2392;52.578;13.426;2023-11-18T07:49:48;5.40;99.90
4757;DHT22;2392;52.578;13.426;2023-11-18T07:52:14;5.40;99.90
4757;DHT22;2392;52.578;13.426;2023-11-18T07:54:42;5.50;99.90
4757;DHT22;2392;52.578;13.426;2023-11-18T07:57:09;5.50;99.90
4757;DHT22;2392;52.578;13.426;2023-11-18T07:59:35;5.50;99.90
4757;DHT22;2392;52.578;13.426;2023-11-18T08:02:03;5.60;99.90
4757;DHT22;2392;52.578;13.426;2023-11-18T08:04:34;5.60;99.90
4757;DHT22;2392;52.578;13.426;2023-11-18T08:07:03;5.60;99.90
4757;DHT22;2392;52.578;13.426;2023-11-18T08:09:30;5.60;99.90
4757;DHT22;2392;52.578;13.426;2023-11-18T08:11:57;5.60;99.90
4757;DHT22;2392;52.578;13.426;2023-11-18T08:14:24;5.60;99.90
4757;DHT22;2392;52.578;13.426;2023-11-18T08:16:52;5.60;99.90
4757;DHT22;2392;52.578;13.426;2023-11-18T08:19:19;5.70;99.90
4757;DHT22;2392;52.578;13.426;2023-11-18T08:21:47;5.70;99.90
4757;DHT22;2392;52.578;13.426;2023-11-18T08:24:15;5.70;99.90
4757;DHT22;2392;52.578;13.426;2023-11-18T08:26:42;5.80;99.90
4757;DHT22;2392;52.578;13.426;2023-11-18T08:29:09;5.80;99.90
4757;DHT22;2392;52.578;13.426;2023-11-18T08:31:38;5.80;99.90
4757;DHT22;2392;52.578;13.426;2023-11-18T08:34:05;5.90;99.90
4757;DHT22;2392;52.578;13.426;2023-11-18T08:36:31;5.90;99.90
4757;DHT22;2392;52.578;13.426;2023-11-18T08:38:59;5.90;99.90
4757;DHT22;2392;52.578;13.426;2023-11-18T08:41:27;6.00;99.90
4757;DHT22;2392;52.578;13.426;2023-11-18T08:43:54;6.00;99.90
4757;DHT22;2392;52.578;13.426;2023-11-18T08:46:20;6.00;99.90
4757;DHT22;2392;52.578;13.426;2023-11-18T08:48:47;6.00;99.90
4757;DHT22;2392;52.578;13.426;2023-11-18T08:51:14;6.10;99.90
4757;DHT22;2392;52.578;13.426;2023-11-18T08:53:42;6.10;99.90
4757;DHT22;2392;52.578;13.426;2023-11-18T08:56:09;6.20;99.90
4757;DHT22;2392;52.578;13.426;2023-11-18T08:58:42;6.30;99.90
4757;DHT22;2392;52.578;13.426;2023-11-18T09:01:10;6.30;99.90
4757;DHT22;2392;52.578;13.426;2023-11-18T09:03:40;6.40;99.90
4757;DHT22;2392;52.578;13.426;2023-11-18T09:06:14;6.40;99.90
4757;DHT22;2392;52.578;13.426;2023-11-18T09:08:45;6.40;99.90
4757;DHT22;2392;52.578;13.426;2023-11-18T09:11:18;6.50;99.90
4757;DHT22;2392;52.578;13.426;2023-11-18T09:13:47;6.50;99.90
4757;DHT22;2392;52.578;13.426;2023-11-18T09:16:15;6.60;99.90
4757;DHT22;2392;52.578;13.426;2023-11-18T09:18:43;6.60;99.90
4757;DHT22;2392;52.578;13.426;2023-11-18T09:21:11;6.60;99.90
4757;DHT22;2392;52.578;13.426;2023-11-18T09:23:40;6.60;99.90
4757;DHT22;2392;52.578;13.426;2023-11-18T09:26:07;6.60;99.90
4757;DHT22;2392;52.578;13.426;2023-11-18T09:28:36;6.60;99.90
4757;DHT22;2392;52.578;13.426;2023-11-18T09:31:05;6.60;99.90
4757;DHT22;2392;52.578;13.426;2023-11-18T09:33:37;6.60;99.90
4757;DHT22;2392;52.578;13.426;2023-11-18T09:36:06;6.70;99.90
4757;DHT22;2392;52.578;13.426;2023-11-18T09:38:34;6.60;99.90
4757;DHT22;2392;52.578;13.426;2023-11-18T09:41:03;6.60;99.90
4757;DHT22;2392;52.578;13.426;2023-11-18T09:43:33;6.60;99.90
4757;DHT22;2392;52.578;13.426;2023-11-18T09:46:09;6.50;99.90
4757;DHT22;2392;52.578;13.426;2023-11-18T09:48:42;6.60;99.90
4757;DHT22;2392;52.578;13.426;2023-11-18T09:51:15;6.60;99.90
4757;DHT22;2392;52.578;13.426;2023-11-18T09:53:49;6.60;99.90
4757;DHT22;2392;52.578;13.426;2023-11-18T09:56:21;6.70;99.90
4757;DHT22;2392;52.578;13.426;2023-11-18T09:59:01;6.70;99.90
4757;DHT22;2392;52.578;13.426;2023-11-18T10:01:37;6.80;99.90
4757;DHT22;2392;52.578;13.426;2023-11-18T10:04:05;6.90;99.90
4757;DHT22;2392;52.578;13.426;2023-11-18T10:06:35;6.90;99.90
4757;DHT22;2392;52.578;13.426;2023-11-18T10:09:02;6.90;99.90
4757;DHT22;2392;52.578;13.426;2023-11-18T10:11:41;6.90;99.90
4757;DHT22;2392;52.578;13.426;2023-11-18T10:14:08;6.80;99.90
4757;DHT22;2392;52.578;13.426;2023-11-18T10:16:37;6.80;99.90
4757;DHT22;2392;52.578;13.426;2023-11-18T10:19:04;6.70;99.90
4757;DHT22;2392;52.578;13.426;2023-11-18T10:21:37;6.70;99.90
4757;DHT22;2392;52.578;13.426;2023-11-18T10:24:06;6.70;99.90
4757;DHT22;2392;52.578;13.426;2023-11-18T10:26:40;6.80;99.90
4757;DHT22;2392;52.578;13.426;2023-11-18T10:29:09;6.80;99.90
4757;DHT22;2392;52.578;13.426;2023-11-18T10:31:38;6.90;99.90
4757;DHT22;2392;52.578;13.426;2023-11-18T10:34:11;6.90;99.90
4757;DHT22;2392;52.578;13.426;2023-11-18T10:36:41;6.90;99.90
4757;DHT22;2392;52.578;13.426;2023-11-18T10:39:13;7.30;99.90
4757;DHT22;2392;52.578;13.426;2023-11-18T10:41:42;8.00;99.90
4757;DHT22;2392;52.578;13.426;2023-11-18T10:44:11;8.70;99.90
4757;DHT22;2392;52.578;13.426;2023-11-18T10:46:50;9.30;99.90
4757;DHT22;2392;52.578;13.426;2023-11-18T10:49:18;9.60;99.90
4757;DHT22;2392;52.578;13.426;2023-11-18T10:51:46;9.60;99.90
4757;DHT22;2392;52.578;13.426;2023-11-18T10:54:13;9.40;99.90
4757;DHT22;2392;52.578;13.426;2023-11-18T10:56:47;9.30;99.90
4757;DHT22;2392;52.578;13.426;2023-11-18T10:59:13;9.20;99.90
4757;DHT22;2392;52.578;13.426;2023-11-18T11:01:43;9.10;99.90
4757;DHT22;2392;52.578;13.426;2023-11-18T11:04:15;8.90;99.90
4757;DHT22;2392;52.578;13.426;2023-11-18T11:06:46;8.80;99.90
4757;DHT22;2392;52.578;13.426;2023-11-18T11:09:17;8.60;99.90
4757;DHT22;2392;52.578;13.426;2023-11-18T11:11:49;8.50;99.90
4757;DHT22;2392;52.578;13.426;2023-11-18T11:14:16;8.30;99.90
4757;DHT22;2392;52.578;13.426;2023-11-18T11:16:52;8.20;99.90
4757;DHT22;2392;52.578;13.426;2023-11-18T11:19:24;8.10;99.90
4757;DHT22;2392;52.578;13.426;2023-11-18T11:22:00;8.00;99.90
4757;DHT22;2392;52.578;13.426;2023-11-18T11:24:37;7.90;99.90
4757;DHT22;2392;52.578;13.426;2023-11-18T11:27:11;7.90;99.90
4757;DHT22;2392;52.578;13.426;2023-11-18T11:29:51;7.90;99.90
4757;DHT22;2392;52.578;13.426;2023-11-18T11:32:26;7.80;99.90
4757;DHT22;2392;52.578;13.426;2023-11-18T11:34:57;7.80;99.90
4757;DHT22;2392;52.578;13.426;2023-11-18T11:37:32;7.80;99.90
4757;DHT22;2392;52.578;13.426;2023-11-18T11:40:00;7.80;99.90
4757;DHT22;2392;52.578;13.426;2023-11-18T11:42:31;7.70;99.90
4757;DHT22;2392;52.578;13.426;2023-11-18T11:45:00;7.70;99.90
4757;DHT22;2392;52.578;13.426;2023-11-18T11:47:29;7.80;99.90
4757;DHT22;2392;52.578;13.426;2023-11-18T11:50:07;7.90;99.90
4757;DHT22;2392;52.578;13.426;2023-11-18T11:52:43;7.90;99.90
4757;DHT22;2392;52.578;13.426;2023-11-18T11:55:18;7.90;99.90
4757;DHT22;2392;52.578;13.426;2023-11-18T11:57:50;7.90;99.90
4757;DHT22;2392;52.578;13.426;2023-11-18T12:00:19;7.80;99.90
4757;DHT22;2392;52.578;13.426;2023-11-18T12:02:53;7.80;99.90
4757;DHT22;2392;52.578;13.426;2023-11-18T12:05:22;7.80;99.90
4757;DHT22;2392;52.578;13.426;2023-11-18T12:07:52;7.80;99.90
4757;DHT22;2392;52.578;13.426;2023-11-18T12:10:20;7.70;99.90
4757;DHT22;2392;52.578;13.426;2023-11-18T12:12:48;7.70;99.90
4757;DHT22;2392;52.578;13.426;2023-11-18T12:15:14;7.70;99.90
4757;DHT22;2392;52.578;13.426;2023-11-18T12:18:12;7.70;99.90
4757;DHT22;2392;52.578;13.426;2023-11-18T12:20:40;7.60;99.90
4757;DHT22;2392;52.578;13.426;2023-11-18T12:23:08;7.60;99.90
4757;DHT22;2392;52.578;13.426;2023-11-18T12:25:41;7.60;99.90
4757;DHT22;2392;52.578;13.426;2023-11-18T12:28:08;7.60;99.90
4757;DHT22;2392;52.578;13.426;2023-11-18T12:30:39;7.50;99.90
4757;DHT22;2392;52.578;13.426;2023-11-18T12:33:19;7.50;99.90
4757;DHT22;2392;52.578;13.426;2023-11-18T12:36:16;7.50;99.90
4757;DHT22;2392;52.578;13.426;2023-11-18T12:39:27;7.50;99.90
4757;DHT22;2392;52.578;13.426;2023-11-18T12:42:04;7.50;99.90
4757;DHT22;2392;52.578;13.426;2023-11-18T12:44:36;7.60;99.90
4757;DHT22;2392;52.578;13.426;2023-11-18T12:47:05;7.70;99.90
4757;DHT22;2392;52.578;13.426;2023-11-18T12:49:42;7.80;99.90
4757;DHT22;2392;52.578;13.426;2023-11-18T12:52:09;7.80;99.90
4757;DHT22;2392;52.578;13.426;2023-11-18T12:54:37;7.70;99.90
4757;DHT22;2392;52.578;13.426;2023-11-18T12:57:06;7.70;99.90
4757;DHT22;2392;52.578;13.426;2023-11-18T12:59:33;7.60;99.90
4757;DHT22;2392;52.578;13.426;2023-11-18T13:02:01;7.50;99.90
4757;DHT22;2392;52.578;13.426;2023-11-18T13:04:30;7.40;99.90
4757;DHT22;2392;52.578;13.426;2023-11-18T13:07:00;7.20;99.90
4757;DHT22;2392;52.578;13.426;2023-11-18T13:09:28;7.20;99.90
4757;DHT22;2392;52.578;13.426;2023-11-18T13:11:59;7.20;99.90
4757;DHT22;2392;52.578;13.426;2023-11-18T13:14:31;7.20;99.90
4757;DHT22;2392;52.578;13.426;2023-11-18T13:17:02;7.10;99.90
4757;DHT22;2392;52.578;13.426;2023-11-18T13:19:31;7.10;99.90
4757;DHT22;2392;52.578;13.426;2023-11-18T13:22:02;7.10;99.90
4757;DHT22;2392;52.578;13.426;2023-11-18T13:24:30;7.10;99.90
4757;DHT22;2392;52.578;13.426;2023-11-18T13:27:00;7.00;99.90
4757;DHT22;2392;52.578;13.426;2023-11-18T13:29:29;7.10;99.90
4757;DHT22;2392;52.578;13.426;2023-11-18T13:31:56;7.10;99.90
4757;DHT22;2392;52.578;13.426;2023-11-18T13:34:23;7.20;99.90
4757;DHT22;2392;52.578;13.426;2023-11-18T13:36:51;7.30;99.90
4757;DHT22;2392;52.578;13.426;2023-11-18T13:39:20;7.40;99.90
4757;DHT22;2392;52.578;13.426;2023-11-18T13:41:49;7.40;99.90
4757;DHT22;2392;52.578;13.426;2023-11-18T13:44:31;7.50;99.90
4757;DHT22;2392;52.578;13.426;2023-11-18T13:46:59;7.50;99.90
4757;DHT22;2392;52.578;13.426;2023-11-18T13:49:28;7.40;99.90
4757;DHT22;2392;52.578;13.426;2023-11-18T13:51:54;7.40;99.90
4757;DHT22;2392;52.578;13.426;2023-11-18T13:54:23;7.20;99.90
4757;DHT22;2392;52.578;13.426;2023-11-18T13:56:50;7.30;99.90
4757;DHT22;2392;52.578;13.426;2023-11-18T13:59:17;7.30;99.90
4757;DHT22;2392;52.578;13.426;2023-11-18T14:01:45;7.20;99.90
4757;DHT22;2392;52.578;13.426;2023-11-18T14:04:11;7.10;99.90
4757;DHT22;2392;52.578;13.426;2023-11-18T14:06:38;7.10;99.90
4757;DHT22;2392;52.578;13.426;2023-11-18T14:09:05;7.10;99.90
4757;DHT22;2392;52.578;13.426;2023-11-18T14:11:36;7.10;99.90
4757;DHT22;2392;52.578;13.426;2023-11-18T14:14:03;7.10;99.90
4757;DHT22;2392;52.578;13.426;2023-11-18T14:16:31;7.10;99.90
4757;DHT22;2392;52.578;13.426;2023-11-18T14:18:58;7.10;99.90
4757;DHT22;2392;52.578;13.426;2023-11-18T14:21:25;7.10;99.90
4757;DHT22;2392;52.578;13.426;2023-11-18T14:23:52;7.10;99.90
4757;DHT22;2392;52.578;13.426;2023-11-18T14:26:21;7.10;99.90
4757;DHT22;2392;52.578;13.426;2023-11-18T14:28:49;7.00;99.90
4757;DHT22;2392;52.578;13.426;2023-11-18T14:31:16;7.00;99.90
4757;DHT22;2392;52.578;13.426;2023-11-18T14:33:42;7.00;99.90
4757;DHT22;2392;52.578;13.426;2023-11-18T14:36:09;7.00;99.90
4757;DHT22;2392;52.578;13.426;2023-11-18T14:38:36;7.10;99.90
4757;DHT22;2392;52.578;13.426;2023-11-18T14:41:03;7.10;99.90
4757;DHT22;2392;52.578;13.426;2023-11-18T14:43:30;7.00;99.90
4757;DHT22;2392;52.578;13.426;2023-11-18T14:45:59;7.00;99.90
4757;DHT22;2392;52.578;13.426;2023-11-18T14:48:25;6.90;99.90
4757;DHT22;2392;52.578;13.426;2023-11-18T14:50:52;6.90;99.90
4757;DHT22;2392;52.578;13.426;2023-11-18T14:53:19;6.80;99.90
4757;DHT22;2392;52.578;13.426;2023-11-18T14:55:45;6.80;99.90
4757;DHT22;2392;52.578;13.426;2023-11-18T14:58:12;6.70;99.90
4757;DHT22;2392;52.578;13.426;2023-11-18T15:00:39;6.70;99.90
4757;DHT22;2392;52.578;13.426;2023-11-18T15:03:06;6.70;99.90
4757;DHT22;2392;52.578;13.426;2023-11-18T15:05:33;6.70;99.90
4757;DHT22;2392;52.578;13.426;2023-11-18T15:08:00;6.70;99.90
4757;DHT22;2392;52.578;13.426;2023-11-18T15:10:27;6.70;99.90
4757;DHT22;2392;52.578;13.426;2023-11-18T15:12:55;6.70;99.90
4757;DHT22;2392;52.578;13.426;2023-11-18T15:15:25;6.70;99.90
4757;DHT22;2392;52.578;13.426;2023-11-18T15:17:57;6.70;99.90
4757;DHT22;2392;52.578;13.426;2023-11-18T15:20:25;6.60;99.90
4757;DHT22;2392;52.578;13.426;2023-11-18T15:22:52;6.60;99.90
4757;DHT22;2392;52.578;13.426;2023-11-18T15:25:19;6.60;99.90
4757;DHT22;2392;52.578;13.426;2023-11-18T15:27:46;6.60;99.90
4757;DHT22;2392;52.578;13.426;2023-11-18T15:30:15;6.50;99.90
4757;DHT22;2392;52.578;13.426;2023-11-18T15:32:42;6.50;99.90
4757;DHT22;2392;52.578;13.426;2023-11-18T15:35:10;6.50;99.90
4757;DHT22;2392;52.578;13.426;2023-11-18T15:37:40;6.40;99.90
4757;DHT22;2392;52.578;13.426;2023-11-18T15:40:08;6.40;99.90
4757;DHT22;2392;52.578;13.426;2023-11-18T15:42:39;6.40;99.90
4757;DHT22;2392;52.578;13.426;2023-11-18T15:45:08;6.40;99.90
4757;DHT22;2392;52.578;13.426;2023-11-18T15:47:36;6.40;99.90
4757;DHT22;2392;52.578;13.426;2023-11-18T15:50:04;6.40;99.90
4757;DHT22;2392;52.578;13.426;2023-11-18T15:52:32;6.40;99.90
4757;DHT22;2392;52.578;13.426;2023-11-18T15:55:01;6.40;99.90
4757;DHT22;2392;52.578;13.426;2023-11-18T15:57:36;6.40;99.90
4757;DHT22;2392;52.578;13.426;2023-11-18T16:00:03;6.40;99.90
4757;DHT22;2392;52.578;13.426;2023-11-18T16:02:31;6.40;99.90
4757;DHT22;2392;52.578;13.426;2023-11-18T16:04:58;6.40;99.90
4757;DHT22;2392;52.578;13.426;2023-11-18T16:07:24;6.40;99.90
4757;DHT22;2392;52.578;13.426;2023-11-18T16:09:51;6.40;99.90
4757;DHT22;2392;52.578;13.426;2023-11-18T16:12:19;6.40;99.90